sensor_id;sensor_type;location;lat;lon;timestamp;P1;durP1;ratioP1;P2;durP2;ratioP2
24030;SDS011;12240;51.142;22.486;2023-10-08T00:02:25;11.35;;;2.72;;
24030;SDS011;12240;51.142;22.486;2023-10-08T00:04:53;10.50;;;2.80;;
24030;SDS011;12240;51.142;22.486;2023-10-08T00:07:24;14.23;;;2.90;;
24030;SDS011;12240;51.142;22.486;2023-10-08T00:09:52;16.88;;;5.10;;
24030;SDS011;12240;51.142;22.486;2023-10-08T00:12:19;29.33;;;6.53;;
24030;SDS011;12240;51.142;22.486;2023-10-08T00:14:47;74.25;;;9.30;;
24030;SDS011;12240;51.142;22.486;2023-10-08T00:17:20;69.95;;;10.00;;
24030;SDS011;12240;51.142;22.486;2023-10-08T00:19:47;47.83;;;6.97;;
24030;SDS011;12240;51.142;22.486;2023-10-08T00:22:19;92.50;;;15.68;;
24030;SDS011;12240;51.142;22.486;2023-10-08T00:24:47;11.40;;;3.75;;
24030;SDS011;12240;51.142;22.486;2023-10-08T00:27:16;401.75;;;257.45;;
24030;SDS011;12240;51.142;22.486;2023-10-08T00:29:44;40.97;;;5.78;;
24030;SDS011;12240;51.142;22.486;2023-10-08T00:32:12;66.15;;;15.93;;
24030;SDS011;12240;51.142;22.486;2023-10-08T00:34:40;55.65;;;6.53;;
24030;SDS011;12240;51.142;22.486;2023-10-08T00:37:12;68.93;;;8.23;;
24030;SDS011;12240;51.142;22.486;2023-10-08T00:39:42;482.10;;;341.80;;
24030;SDS011;12240;51.142;22.486;2023-10-08T00:42:10;84.07;;;14.82;;
24030;SDS011;12240;51.142;22.486;2023-10-08T00:44:39;332.23;;;242.88;;
24030;SDS011;12240;51.142;22.486;2023-10-08T00:47:18;101.93;;;20.25;;
24030;SDS011;12240;51.142;22.486;2023-10-08T00:49:52;99.30;;;47.45;;
24030;SDS011;12240;51.142;22.486;2023-10-08T00:52:35;67.72;;;11.27;;
24030;SDS011;12240;51.142;22.486;2023-10-08T00:55:23;9.05;;;1.38;;
24030;SDS011;12240;51.142;22.486;2023-10-08T00:57:58;5.63;;;1.65;;
24030;SDS011;12240;51.142;22.486;2023-10-08T01:00:35;5.63;;;1.40;;
24030;SDS011;12240;51.142;22.486;2023-10-08T01:03:08;4.45;;;1.25;;
24030;SDS011;12240;51.142;22.486;2023-10-08T01:05:46;4.28;;;1.27;;
24030;SDS011;12240;51.142;22.486;2023-10-08T01:08:15;6.53;;;1.20;;
24030;SDS011;12240;51.142;22.486;2023-10-08T01:14:16;5.45;;;1.42;;
24030;SDS011;12240;51.142;22.486;2023-10-08T01:16:51;6.47;;;2.08;;
24030;SDS011;12240;51.142;22.486;2023-10-08T01:19:18;4.28;;;1.15;;
24030;SDS011;12240;51.142;22.486;2023-10-08T01:21:47;4.35;;;1.00;;
24030;SDS011;12240;51.142;22.486;2023-10-08T01:24:14;3.83;;;1.48;;
24030;SDS011;12240;51.142;22.486;2023-10-08T01:26:44;5.47;;;1.35;;
24030;SDS011;12240;51.142;22.486;2023-10-08T01:29:12;3.95;;;1.23;;
24030;SDS011;12240;51.142;22.486;2023-10-08T01:31:46;4.75;;;1.55;;
24030;SDS011;12240;51.142;22.486;2023-10-08T01:34:20;6.57;;;1.10;;
24030;SDS011;12240;51.142;22.486;2023-10-08T01:36:53;9.77;;;1.25;;
24030;SDS011;12240;51.142;22.486;2023-10-08T01:39:21;4.03;;;1.05;;
24030;SDS011;12240;51.142;22.486;2023-10-08T01:41:48;6.05;;;1.15;;
24030;SDS011;12240;51.142;22.486;2023-10-08T01:44:18;3.35;;;0.88;;
24030;SDS011;12240;51.142;22.486;2023-10-08T01:46:45;7.78;;;1.10;;
24030;SDS011;12240;51.142;22.486;2023-10-08T01:49:13;3.17;;;1.00;;
24030;SDS011;12240;51.142;22.486;2023-10-08T01:51:42;4.18;;;1.08;;
24030;SDS011;12240;51.142;22.486;2023-10-08T01:54:16;5.88;;;1.55;;
24030;SDS011;12240;51.142;22.486;2023-10-08T01:56:47;5.55;;;1.20;;
24030;SDS011;12240;51.142;22.486;2023-10-08T01:59:17;3.33;;;1.13;;
24030;SDS011;12240;51.142;22.486;2023-10-08T02:01:44;3.70;;;0.90;;
24030;SDS011;12240;51.142;22.486;2023-10-08T02:04:12;3.60;;;1.23;;
24030;SDS011;12240;51.142;22.486;2023-10-08T02:06:43;3.37;;;0.93;;
24030;SDS011;12240;51.142;22.486;2023-10-08T02:09:12;4.25;;;1.10;;
24030;SDS011;12240;51.142;22.486;2023-10-08T02:11:42;5.07;;;1.15;;
24030;SDS011;12240;51.142;22.486;2023-10-08T02:14:17;6.72;;;1.40;;
24030;SDS011;12240;51.142;22.486;2023-10-08T02:16:49;7.68;;;1.27;;
24030;SDS011;12240;51.142;22.486;2023-10-08T02:19:19;4.03;;;1.05;;
24030;SDS011;12240;51.142;22.486;2023-10-08T02:21:55;5.45;;;1.00;;
24030;SDS011;12240;51.142;22.486;2023-10-08T02:24:25;6.47;;;1.10;;
24030;SDS011;12240;51.142;22.486;2023-10-08T02:26:53;6.00;;;2.55;;
24030;SDS011;12240;51.142;22.486;2023-10-08T02:29:24;4.43;;;1.30;;
24030;SDS011;12240;51.142;22.486;2023-10-08T02:31:57;2.92;;;0.93;;
24030;SDS011;12240;51.142;22.486;2023-10-08T02:34:26;4.63;;;1.20;;
24030;SDS011;12240;51.142;22.486;2023-10-08T02:36:53;4.25;;;1.02;;
24030;SDS011;12240;51.142;22.486;2023-10-08T02:39:23;7.20;;;1.60;;
24030;SDS011;12240;51.142;22.486;2023-10-08T02:41:54;8.27;;;1.20;;
24030;SDS011;12240;51.142;22.486;2023-10-08T02:44:25;3.00;;;0.98;;
24030;SDS011;12240;51.142;22.486;2023-10-08T02:46:54;5.45;;;1.27;;
24030;SDS011;12240;51.142;22.486;2023-10-08T02:49:21;3.90;;;0.75;;
24030;SDS011;12240;51.142;22.486;2023-10-08T02:51:53;3.78;;;1.30;;
24030;SDS011;12240;51.142;22.486;2023-10-08T02:54:22;3.00;;;0.70;;
24030;SDS011;12240;51.142;22.486;2023-10-08T02:56:52;3.70;;;1.42;;
24030;SDS011;12240;51.142;22.486;2023-10-08T02:59:31;3.95;;;1.02;;
24030;SDS011;12240;51.142;22.486;2023-10-08T03:02:13;4.80;;;1.10;;
24030;SDS011;12240;51.142;22.486;2023-10-08T03:04:49;4.50;;;1.13;;
24030;SDS011;12240;51.142;22.486;2023-10-08T03:07:19;2.07;;;1.00;;
24030;SDS011;12240;51.142;22.486;2023-10-08T03:09:59;2.30;;;0.77;;
24030;SDS011;12240;51.142;22.486;2023-10-08T03:12:53;5.55;;;1.23;;
24030;SDS011;12240;51.142;22.486;2023-10-08T03:15:20;9.63;;;1.73;;
24030;SDS011;12240;51.142;22.486;2023-10-08T03:18:00;5.13;;;1.40;;
24030;SDS011;12240;51.142;22.486;2023-10-08T03:20:37;3.63;;;1.33;;
24030;SDS011;12240;51.142;22.486;2023-10-08T03:23:13;7.32;;;1.55;;
24030;SDS011;12240;51.142;22.486;2023-10-08T03:25:55;6.78;;;1.35;;
24030;SDS011;12240;51.142;22.486;2023-10-08T03:28:25;7.35;;;1.50;;
24030;SDS011;12240;51.142;22.486;2023-10-08T03:30:56;5.82;;;1.85;;
24030;SDS011;12240;51.142;22.486;2023-10-08T03:33:32;4.90;;;1.52;;
24030;SDS011;12240;51.142;22.486;2023-10-08T03:36:02;3.20;;;1.10;;
24030;SDS011;12240;51.142;22.486;2023-10-08T03:38:41;4.57;;;1.63;;
24030;SDS011;12240;51.142;22.486;2023-10-08T03:41:11;3.45;;;1.63;;
24030;SDS011;12240;51.142;22.486;2023-10-08T03:43:45;4.10;;;1.63;;
24030;SDS011;12240;51.142;22.486;2023-10-08T03:46:29;3.92;;;1.48;;
24030;SDS011;12240;51.142;22.486;2023-10-08T03:48:57;5.32;;;1.52;;
24030;SDS011;12240;51.142;22.486;2023-10-08T03:51:31;7.22;;;1.50;;
24030;SDS011;12240;51.142;22.486;2023-10-08T03:54:06;4.38;;;1.40;;
24030;SDS011;12240;51.142;22.486;2023-10-08T03:56:43;4.30;;;1.30;;
24030;SDS011;12240;51.142;22.486;2023-10-08T03:59:15;6.63;;;1.20;;
24030;SDS011;12240;51.142;22.486;2023-10-08T04:01:59;4.55;;;1.90;;
24030;SDS011;12240;51.142;22.486;2023-10-08T04:04:51;6.60;;;1.23;;
24030;SDS011;12240;51.142;22.486;2023-10-08T04:07:21;3.38;;;1.10;;
24030;SDS011;12240;51.142;22.486;2023-10-08T04:10:11;342.42;;;204.20;;
24030;SDS011;12240;51.142;22.486;2023-10-08T04:12:39;318.00;;;116.70;;
24030;SDS011;12240;51.142;22.486;2023-10-08T04:15:17;220.57;;;84.57;;
24030;SDS011;12240;51.142;22.486;2023-10-08T04:17:45;316.75;;;116.47;;
24030;SDS011;12240;51.142;22.486;2023-10-08T04:20:18;63.15;;;7.05;;
24030;SDS011;12240;51.142;22.486;2023-10-08T04:23:00;395.42;;;273.00;;
24030;SDS011;12240;51.142;22.486;2023-10-08T04:25:30;89.40;;;18.45;;
24030;SDS011;12240;51.142;22.486;2023-10-08T04:27:58;220.80;;;121.90;;
24030;SDS011;12240;51.142;22.486;2023-10-08T04:30:36;417.73;;;261.85;;
24030;SDS011;12240;51.142;22.486;2023-10-08T04:33:03;225.88;;;136.50;;
24030;SDS011;12240;51.142;22.486;2023-10-08T04:35:42;428.88;;;254.40;;
24030;SDS011;12240;51.142;22.486;2023-10-08T04:38:23;85.75;;;8.65;;
24030;SDS011;12240;51.142;22.486;2023-10-08T04:40:55;330.08;;;192.18;;
24030;SDS011;12240;51.142;22.486;2023-10-08T04:43:29;488.02;;;317.75;;
24030;SDS011;12240;51.142;22.486;2023-10-08T04:46:00;282.77;;;177.25;;
24030;SDS011;12240;51.142;22.486;2023-10-08T04:48:33;122.03;;;42.35;;
24030;SDS011;12240;51.142;22.486;2023-10-08T04:51:00;87.40;;;11.00;;
24030;SDS011;12240;51.142;22.486;2023-10-08T04:53:29;128.77;;;15.35;;
24030;SDS011;12240;51.142;22.486;2023-10-08T04:56:05;370.77;;;222.68;;
24030;SDS011;12240;51.142;22.486;2023-10-08T04:58:40;257.77;;;142.45;;
24030;SDS011;12240;51.142;22.486;2023-10-08T05:01:08;171.82;;;76.10;;
24030;SDS011;12240;51.142;22.486;2023-10-08T05:03:48;360.80;;;228.40;;
24030;SDS011;12240;51.142;22.486;2023-10-08T05:06:37;400.80;;;216.93;;
24030;SDS011;12240;51.142;22.486;2023-10-08T05:09:05;396.90;;;213.68;;
24030;SDS011;12240;51.142;22.486;2023-10-08T05:11:50;389.55;;;251.95;;
24030;SDS011;12240;51.142;22.486;2023-10-08T05:14:19;396.58;;;264.00;;
24030;SDS011;12240;51.142;22.486;2023-10-08T05:16:57;345.42;;;255.20;;
24030;SDS011;12240;51.142;22.486;2023-10-08T05:19:39;398.75;;;285.88;;
24030;SDS011;12240;51.142;22.486;2023-10-08T05:22:08;430.35;;;288.90;;
24030;SDS011;12240;51.142;22.486;2023-10-08T05:24:46;436.63;;;318.05;;
24030;SDS011;12240;51.142;22.486;2023-10-08T05:27:36;371.00;;;195.80;;
24030;SDS011;12240;51.142;22.486;2023-10-08T05:30:10;155.75;;;76.55;;
24030;SDS011;12240;51.142;22.486;2023-10-08T05:32:43;421.23;;;264.40;;
24030;SDS011;12240;51.142;22.486;2023-10-08T05:35:32;306.83;;;112.43;;
24030;SDS011;12240;51.142;22.486;2023-10-08T05:38:09;410.65;;;233.45;;
24030;SDS011;12240;51.142;22.486;2023-10-08T05:40:43;418.15;;;280.17;;
24030;SDS011;12240;51.142;22.486;2023-10-08T05:43:31;396.33;;;287.63;;
24030;SDS011;12240;51.142;22.486;2023-10-08T05:46:07;394.25;;;209.73;;
24030;SDS011;12240;51.142;22.486;2023-10-08T05:48:55;16.45;;;5.13;;
24030;SDS011;12240;51.142;22.486;2023-10-08T05:51:33;10.00;;;2.80;;
24030;SDS011;12240;51.142;22.486;2023-10-08T05:54:23;7.78;;;2.63;;
24030;SDS011;12240;51.142;22.486;2023-10-08T05:57:11;8.13;;;2.55;;
24030;SDS011;12240;51.142;22.486;2023-10-08T06:02:40;8.40;;;2.42;;
24030;SDS011;12240;51.142;22.486;2023-10-08T06:05:12;13.50;;;2.30;;
24030;SDS011;12240;51.142;22.486;2023-10-08T06:07:42;6.05;;;2.28;;
24030;SDS011;12240;51.142;22.486;2023-10-08T06:13:03;9.45;;;2.67;;
24030;SDS011;12240;51.142;22.486;2023-10-08T06:15:36;11.50;;;3.33;;
24030;SDS011;12240;51.142;22.486;2023-10-08T06:18:26;8.77;;;2.78;;
24030;SDS011;12240;51.142;22.486;2023-10-08T06:20:55;10.00;;;3.53;;
24030;SDS011;12240;51.142;22.486;2023-10-08T06:23:26;9.30;;;3.50;;
24030;SDS011;12240;51.142;22.486;2023-10-08T06:25:56;12.68;;;4.65;;
24030;SDS011;12240;51.142;22.486;2023-10-08T06:28:44;13.02;;;4.88;;
24030;SDS011;12240;51.142;22.486;2023-10-08T06:31:11;11.55;;;4.85;;
24030;SDS011;12240;51.142;22.486;2023-10-08T06:33:42;15.50;;;6.47;;
24030;SDS011;12240;51.142;22.486;2023-10-08T06:36:10;15.85;;;6.72;;
24030;SDS011;12240;51.142;22.486;2023-10-08T06:38:38;15.45;;;5.45;;
24030;SDS011;12240;51.142;22.486;2023-10-08T06:41:08;11.15;;;4.35;;
24030;SDS011;12240;51.142;22.486;2023-10-08T06:43:37;17.45;;;6.10;;
24030;SDS011;12240;51.142;22.486;2023-10-08T06:46:05;11.45;;;5.38;;
24030;SDS011;12240;51.142;22.486;2023-10-08T06:48:39;18.05;;;8.40;;
24030;SDS011;12240;51.142;22.486;2023-10-08T06:51:10;16.27;;;4.45;;
24030;SDS011;12240;51.142;22.486;2023-10-08T06:53:40;10.10;;;4.55;;
24030;SDS011;12240;51.142;22.486;2023-10-08T06:56:12;15.05;;;5.68;;
24030;SDS011;12240;51.142;22.486;2023-10-08T06:58:43;12.23;;;4.60;;
24030;SDS011;12240;51.142;22.486;2023-10-08T07:01:14;10.43;;;3.63;;
24030;SDS011;12240;51.142;22.486;2023-10-08T07:03:48;32.55;;;8.88;;
24030;SDS011;12240;51.142;22.486;2023-10-08T07:06:16;316.50;;;114.22;;
24030;SDS011;12240;51.142;22.486;2023-10-08T07:08:52;325.38;;;119.63;;
24030;SDS011;12240;51.142;22.486;2023-10-08T07:11:22;333.30;;;122.40;;
24030;SDS011;12240;51.142;22.486;2023-10-08T07:13:50;220.55;;;89.78;;
24030;SDS011;12240;51.142;22.486;2023-10-08T07:16:18;133.98;;;32.88;;
24030;SDS011;12240;51.142;22.486;2023-10-08T07:18:48;99.90;;;16.95;;
24030;SDS011;12240;51.142;22.486;2023-10-08T07:21:18;105.30;;;11.45;;
24030;SDS011;12240;51.142;22.486;2023-10-08T07:23:56;306.00;;;116.57;;
24030;SDS011;12240;51.142;22.486;2023-10-08T07:26:27;345.60;;;124.70;;
24030;SDS011;12240;51.142;22.486;2023-10-08T07:29:05;338.55;;;124.95;;
24030;SDS011;12240;51.142;22.486;2023-10-08T07:31:36;327.42;;;121.45;;
24030;SDS011;12240;51.142;22.486;2023-10-08T07:34:04;354.73;;;127.13;;
24030;SDS011;12240;51.142;22.486;2023-10-08T07:36:50;335.60;;;121.63;;
24030;SDS011;12240;51.142;22.486;2023-10-08T07:39:18;361.80;;;127.93;;
24030;SDS011;12240;51.142;22.486;2023-10-08T07:42:05;319.08;;;121.65;;
24030;SDS011;12240;51.142;22.486;2023-10-08T07:44:33;326.85;;;130.00;;
24030;SDS011;12240;51.142;22.486;2023-10-08T07:47:03;332.70;;;122.07;;
24030;SDS011;12240;51.142;22.486;2023-10-08T07:49:41;343.23;;;123.53;;
24030;SDS011;12240;51.142;22.486;2023-10-08T07:52:11;330.27;;;121.22;;
24030;SDS011;12240;51.142;22.486;2023-10-08T07:54:43;331.52;;;123.93;;
24030;SDS011;12240;51.142;22.486;2023-10-08T07:57:11;329.27;;;120.38;;
24030;SDS011;12240;51.142;22.486;2023-10-08T07:59:40;310.27;;;117.85;;
24030;SDS011;12240;51.142;22.486;2023-10-08T08:02:09;322.02;;;119.18;;
24030;SDS011;12240;51.142;22.486;2023-10-08T08:04:43;323.88;;;122.43;;
24030;SDS011;12240;51.142;22.486;2023-10-08T08:07:13;323.00;;;123.80;;
24030;SDS011;12240;51.142;22.486;2023-10-08T08:09:44;293.23;;;121.10;;
24030;SDS011;12240;51.142;22.486;2023-10-08T08:12:20;356.60;;;126.18;;
24030;SDS011;12240;51.142;22.486;2023-10-08T08:14:50;333.58;;;125.13;;
24030;SDS011;12240;51.142;22.486;2023-10-08T08:17:21;323.67;;;119.03;;
24030;SDS011;12240;51.142;22.486;2023-10-08T08:19:50;313.67;;;116.15;;
24030;SDS011;12240;51.142;22.486;2023-10-08T08:22:19;337.92;;;123.85;;
24030;SDS011;12240;51.142;22.486;2023-10-08T08:24:58;315.58;;;121.75;;
24030;SDS011;12240;51.142;22.486;2023-10-08T08:27:57;325.10;;;119.30;;
24030;SDS011;12240;51.142;22.486;2023-10-08T08:30:26;317.13;;;120.03;;
24030;SDS011;12240;51.142;22.486;2023-10-08T08:32:54;329.05;;;118.05;;
24030;SDS011;12240;51.142;22.486;2023-10-08T08:35:23;342.25;;;122.13;;
24030;SDS011;12240;51.142;22.486;2023-10-08T08:37:51;302.30;;;117.32;;
24030;SDS011;12240;51.142;22.486;2023-10-08T08:40:19;356.45;;;122.05;;
24030;SDS011;12240;51.142;22.486;2023-10-08T08:42:50;321.40;;;116.97;;
24030;SDS011;12240;51.142;22.486;2023-10-08T08:45:20;324.23;;;121.40;;
24030;SDS011;12240;51.142;22.486;2023-10-08T08:47:49;342.80;;;121.10;;
24030;SDS011;12240;51.142;22.486;2023-10-08T08:50:17;352.95;;;122.47;;
24030;SDS011;12240;51.142;22.486;2023-10-08T08:52:46;326.38;;;127.50;;
24030;SDS011;12240;51.142;22.486;2023-10-08T08:55:14;347.02;;;124.38;;
24030;SDS011;12240;51.142;22.486;2023-10-08T08:57:44;325.85;;;126.15;;
24030;SDS011;12240;51.142;22.486;2023-10-08T09:00:15;314.25;;;123.88;;
24030;SDS011;12240;51.142;22.486;2023-10-08T09:02:44;334.50;;;134.32;;
24030;SDS011;12240;51.142;22.486;2023-10-08T09:05:15;356.65;;;140.68;;
24030;SDS011;12240;51.142;22.486;2023-10-08T09:10:22;362.75;;;139.57;;
24030;SDS011;12240;51.142;22.486;2023-10-08T09:12:55;324.60;;;122.47;;
24030;SDS011;12240;51.142;22.486;2023-10-08T09:15:27;364.40;;;138.10;;
24030;SDS011;12240;51.142;22.486;2023-10-08T09:17:55;329.45;;;125.30;;
24030;SDS011;12240;51.142;22.486;2023-10-08T09:20:23;357.92;;;125.78;;
24030;SDS011;12240;51.142;22.486;2023-10-08T09:25:34;366.73;;;143.38;;
24030;SDS011;12240;51.142;22.486;2023-10-08T09:28:02;389.15;;;196.48;;
24030;SDS011;12240;51.142;22.486;2023-10-08T09:30:35;75.43;;;13.30;;
24030;SDS011;12240;51.142;22.486;2023-10-08T09:33:05;95.68;;;8.93;;
24030;SDS011;12240;51.142;22.486;2023-10-08T09:35:34;77.43;;;7.47;;
24030;SDS011;12240;51.142;22.486;2023-10-08T09:38:08;79.88;;;7.85;;
24030;SDS011;12240;51.142;22.486;2023-10-08T09:40:42;72.10;;;7.35;;
24030;SDS011;12240;51.142;22.486;2023-10-08T09:43:13;175.73;;;31.40;;
24030;SDS011;12240;51.142;22.486;2023-10-08T09:45:43;267.15;;;89.78;;
24030;SDS011;12240;51.142;22.486;2023-10-08T09:48:15;297.10;;;95.22;;
24030;SDS011;12240;51.142;22.486;2023-10-08T09:50:44;392.27;;;131.88;;
24030;SDS011;12240;51.142;22.486;2023-10-08T09:53:13;387.75;;;125.68;;
24030;SDS011;12240;51.142;22.486;2023-10-08T09:55:54;386.17;;;156.60;;
24030;SDS011;12240;51.142;22.486;2023-10-08T09:58:24;345.05;;;121.20;;
24030;SDS011;12240;51.142;22.486;2023-10-08T10:00:54;94.22;;;8.68;;
24030;SDS011;12240;51.142;22.486;2023-10-08T10:03:25;106.07;;;10.10;;
24030;SDS011;12240;51.142;22.486;2023-10-08T10:05:54;275.63;;;102.93;;
24030;SDS011;12240;51.142;22.486;2023-10-08T10:08:26;349.60;;;149.13;;
24030;SDS011;12240;51.142;22.486;2023-10-08T10:10:58;102.60;;;10.40;;
24030;SDS011;12240;51.142;22.486;2023-10-08T10:13:27;104.88;;;11.02;;
24030;SDS011;12240;51.142;22.486;2023-10-08T10:15:57;76.85;;;8.00;;
24030;SDS011;12240;51.142;22.486;2023-10-08T10:20:56;69.30;;;7.45;;
24030;SDS011;12240;51.142;22.486;2023-10-08T10:23:34;83.85;;;10.23;;
24030;SDS011;12240;51.142;22.486;2023-10-08T10:26:03;87.28;;;10.35;;
24030;SDS011;12240;51.142;22.486;2023-10-08T10:28:31;174.07;;;44.30;;
24030;SDS011;12240;51.142;22.486;2023-10-08T10:31:00;118.13;;;39.13;;
24030;SDS011;12240;51.142;22.486;2023-10-08T10:33:30;224.68;;;83.20;;
24030;SDS011;12240;51.142;22.486;2023-10-08T10:36:03;106.55;;;31.75;;
24030;SDS011;12240;51.142;22.486;2023-10-08T10:38:32;311.85;;;104.90;;
24030;SDS011;12240;51.142;22.486;2023-10-08T10:41:03;338.77;;;155.38;;
24030;SDS011;12240;51.142;22.486;2023-10-08T10:43:35;77.05;;;8.57;;
24030;SDS011;12240;51.142;22.486;2023-10-08T10:46:06;105.88;;;10.45;;
24030;SDS011;12240;51.142;22.486;2023-10-08T10:48:52;92.13;;;9.52;;
24030;SDS011;12240;51.142;22.486;2023-10-08T10:51:38;87.88;;;9.07;;
24030;SDS011;12240;51.142;22.486;2023-10-08T10:54:08;115.10;;;13.52;;
24030;SDS011;12240;51.142;22.486;2023-10-08T10:56:37;96.22;;;11.52;;
24030;SDS011;12240;51.142;22.486;2023-10-08T10:59:10;105.00;;;10.90;;
24030;SDS011;12240;51.142;22.486;2023-10-08T11:01:46;87.53;;;10.00;;
24030;SDS011;12240;51.142;22.486;2023-10-08T11:04:22;85.68;;;9.40;;
24030;SDS011;12240;51.142;22.486;2023-10-08T11:06:56;71.05;;;8.40;;
24030;SDS011;12240;51.142;22.486;2023-10-08T11:09:25;284.98;;;110.13;;
24030;SDS011;12240;51.142;22.486;2023-10-08T11:12:06;115.97;;;10.80;;
24030;SDS011;12240;51.142;22.486;2023-10-08T11:14:39;90.05;;;8.77;;
24030;SDS011;12240;51.142;22.486;2023-10-08T11:17:17;108.63;;;10.40;;
24030;SDS011;12240;51.142;22.486;2023-10-08T11:19:47;75.30;;;7.72;;
24030;SDS011;12240;51.142;22.486;2023-10-08T11:22:15;108.25;;;10.82;;
24030;SDS011;12240;51.142;22.486;2023-10-08T11:36:52;321.63;;;118.10;;
24030;SDS011;12240;51.142;22.486;2023-10-08T11:39:20;347.73;;;134.65;;
24030;SDS011;12240;51.142;22.486;2023-10-08T11:53:54;43.20;;;7.15;;
24030;SDS011;12240;51.142;22.486;2023-10-08T11:55:02;29.65;;;8.02;;
24030;SDS011;12240;51.142;22.486;2023-10-08T11:55:18;27.15;;;8.23;;
24030;SDS011;12240;51.142;22.486;2023-10-08T12:22:13;51.08;;;7.15;;
24030;SDS011;12240;51.142;22.486;2023-10-08T12:22:31;69.47;;;9.68;;
24030;SDS011;12240;51.142;22.486;2023-10-08T12:22:44;73.20;;;10.35;;
24030;SDS011;12240;51.142;22.486;2023-10-08T12:22:57;72.43;;;10.43;;
24030;SDS011;12240;51.142;22.486;2023-10-08T12:23:11;71.38;;;10.30;;
24030;SDS011;12240;51.142;22.486;2023-10-08T12:23:31;64.30;;;8.90;;
24030;SDS011;12240;51.142;22.486;2023-10-08T12:23:45;71.00;;;9.82;;
24030;SDS011;12240;51.142;22.486;2023-10-08T12:23:59;87.75;;;16.50;;
24030;SDS011;12240;51.142;22.486;2023-10-08T12:24:17;222.90;;;77.75;;
24030;SDS011;12240;51.142;22.486;2023-10-08T12:24:31;336.60;;;122.82;;
24030;SDS011;12240;51.142;22.486;2023-10-08T12:24:47;425.27;;;150.85;;
24030;SDS011;12240;51.142;22.486;2023-10-08T12:25:03;477.52;;;166.75;;
24030;SDS011;12240;51.142;22.486;2023-10-08T12:25:19;424.17;;;153.32;;
24030;SDS011;12240;51.142;22.486;2023-10-08T12:25:32;412.02;;;149.10;;
24030;SDS011;12240;51.142;22.486;2023-10-08T12:25:45;397.17;;;137.00;;
24030;SDS011;12240;51.142;22.486;2023-10-08T12:26:04;371.15;;;130.32;;
24030;SDS011;12240;51.142;22.486;2023-10-08T12:26:56;133.82;;;37.13;;
24030;SDS011;12240;51.142;22.486;2023-10-08T12:27:10;244.40;;;103.70;;
24030;SDS011;12240;51.142;22.486;2023-10-08T12:27:24;310.88;;;128.90;;
24030;SDS011;12240;51.142;22.486;2023-10-08T12:27:37;362.48;;;140.48;;
24030;SDS011;12240;51.142;22.486;2023-10-08T12:27:49;380.00;;;143.80;;
24030;SDS011;12240;51.142;22.486;2023-10-08T12:28:02;389.67;;;149.60;;
24030;SDS011;12240;51.142;22.486;2023-10-08T12:28:52;17.23;;;5.07;;
24030;SDS011;12240;51.142;22.486;2023-10-08T12:29:06;51.60;;;9.52;;
24030;SDS011;12240;51.142;22.486;2023-10-08T12:29:20;67.13;;;11.05;;
24030;SDS011;12240;51.142;22.486;2023-10-08T12:29:37;58.33;;;9.70;;
24030;SDS011;12240;51.142;22.486;2023-10-08T12:29:50;49.33;;;8.77;;
24030;SDS011;12240;51.142;22.486;2023-10-08T12:30:05;56.90;;;9.80;;
24030;SDS011;12240;51.142;22.486;2023-10-08T12:30:23;62.05;;;10.48;;
24030;SDS011;12240;51.142;22.486;2023-10-08T12:30:42;58.20;;;9.80;;
24030;SDS011;12240;51.142;22.486;2023-10-08T12:30:55;62.40;;;10.05;;
24030;SDS011;12240;51.142;22.486;2023-10-08T12:31:08;72.35;;;10.93;;
24030;SDS011;12240;51.142;22.486;2023-10-08T12:31:22;73.05;;;11.32;;
24030;SDS011;12240;51.142;22.486;2023-10-08T12:31:36;78.50;;;15.93;;
24030;SDS011;12240;51.142;22.486;2023-10-08T12:31:49;85.03;;;18.10;;
24030;SDS011;12240;51.142;22.486;2023-10-08T12:32:05;84.32;;;14.10;;
24030;SDS011;12240;51.142;22.486;2023-10-08T12:32:29;67.68;;;9.55;;
24030;SDS011;12240;51.142;22.486;2023-10-08T12:32:43;59.63;;;9.35;;
24030;SDS011;12240;51.142;22.486;2023-10-08T12:32:59;70.63;;;12.55;;
24030;SDS011;12240;51.142;22.486;2023-10-08T12:33:12;48.30;;;10.82;;
24030;SDS011;12240;51.142;22.486;2023-10-08T12:33:28;15.75;;;5.18;;
24030;SDS011;12240;51.142;22.486;2023-10-08T13:01:39;6.82;;;2.70;;
24030;SDS011;12240;51.142;22.486;2023-10-08T13:01:53;8.07;;;2.72;;
24030;SDS011;12240;51.142;22.486;2023-10-08T13:02:07;8.25;;;2.80;;
24030;SDS011;12240;51.142;22.486;2023-10-08T13:02:23;9.18;;;2.92;;
24030;SDS011;12240;51.142;22.486;2023-10-08T13:03:19;4.32;;;2.20;;
24030;SDS011;12240;51.142;22.486;2023-10-08T13:03:36;8.27;;;2.85;;
24030;SDS011;12240;51.142;22.486;2023-10-08T13:03:59;11.85;;;3.35;;
24030;SDS011;12240;51.142;22.486;2023-10-08T13:04:13;10.80;;;3.17;;
24030;SDS011;12240;51.142;22.486;2023-10-08T13:06:17;9.05;;;1.73;;
24030;SDS011;12240;51.142;22.486;2023-10-08T13:06:34;9.45;;;2.20;;
24030;SDS011;12240;51.142;22.486;2023-10-08T13:06:50;8.43;;;2.65;;
24030;SDS011;12240;51.142;22.486;2023-10-08T13:21:19;15.18;;;3.88;;
24030;SDS011;12240;51.142;22.486;2023-10-08T13:21:32;23.92;;;6.05;;
24030;SDS011;12240;51.142;22.486;2023-10-08T13:21:45;25.90;;;6.40;;
24030;SDS011;12240;51.142;22.486;2023-10-08T13:21:59;25.20;;;6.63;;
24030;SDS011;12240;51.142;22.486;2023-10-08T13:22:12;18.20;;;6.05;;
24030;SDS011;12240;51.142;22.486;2023-10-08T13:22:32;11.75;;;4.18;;
24030;SDS011;12240;51.142;22.486;2023-10-08T13:22:45;9.93;;;3.65;;
24030;SDS011;12240;51.142;22.486;2023-10-08T13:23:37;39.47;;;6.72;;
24030;SDS011;12240;51.142;22.486;2023-10-08T13:23:51;36.22;;;7.22;;
24030;SDS011;12240;51.142;22.486;2023-10-08T13:24:04;38.65;;;7.68;;
24030;SDS011;12240;51.142;22.486;2023-10-08T13:24:21;37.38;;;7.70;;
24030;SDS011;12240;51.142;22.486;2023-10-08T13:24:36;30.55;;;7.65;;
24030;SDS011;12240;51.142;22.486;2023-10-08T13:24:51;24.20;;;6.90;;
24030;SDS011;12240;51.142;22.486;2023-10-08T13:25:04;20.48;;;6.47;;
24030;SDS011;12240;51.142;22.486;2023-10-08T13:25:18;18.25;;;6.95;;
24030;SDS011;12240;51.142;22.486;2023-10-08T13:25:32;14.18;;;6.15;;
24030;SDS011;12240;51.142;22.486;2023-10-08T13:28:14;5.20;;;1.70;;
24030;SDS011;12240;51.142;22.486;2023-10-08T13:30:42;6.03;;;2.03;;
24030;SDS011;12240;51.142;22.486;2023-10-08T13:33:10;9.25;;;2.50;;
24030;SDS011;12240;51.142;22.486;2023-10-08T13:35:38;6.97;;;1.95;;
24030;SDS011;12240;51.142;22.486;2023-10-08T13:38:06;5.65;;;2.10;;
24030;SDS011;12240;51.142;22.486;2023-10-08T13:40:36;6.78;;;2.20;;
24030;SDS011;12240;51.142;22.486;2023-10-08T13:43:10;5.57;;;1.90;;
24030;SDS011;12240;51.142;22.486;2023-10-08T13:45:38;6.75;;;2.10;;
24030;SDS011;12240;51.142;22.486;2023-10-08T13:48:06;5.60;;;1.40;;
24030;SDS011;12240;51.142;22.486;2023-10-08T13:50:40;7.57;;;1.75;;
24030;SDS011;12240;51.142;22.486;2023-10-08T13:53:08;6.90;;;1.88;;
24030;SDS011;12240;51.142;22.486;2023-10-08T13:55:37;5.03;;;1.90;;
24030;SDS011;12240;51.142;22.486;2023-10-08T13:58:05;8.05;;;2.17;;